Time;durP1;ratioP1;P1;durP2;ratioP2;P2;SDS_P1;SDS_P2;PMS_P1;PMS_P2;Temp;Humidity;BMP_temperature;BMP_pressure;BME280_temperature;BME280_humidity;BME280_pressure;Samples;Min_cycle;Max_cycle;Signal;HPM_P1;HPM_P2
2023/03/04 00:01:36;;;;;;;;;24.00;24.00;;;;;;;;5069931;29;8818;-75
2023/03/04 00:04:25;;;;;;;;;25.40;23.20;;;;;;;;5086823;29;8957;-74
2023/03/04 00:06:56;;;;;;;;;14.50;13.75;;;;;;;;5085803;29;8923;-74
2023/03/04 00:09:27;;;;;;;;;39.20;38.20;;;;;;;;5070721;29;8859;-75
2023/03/04 00:11:58;;;;;;;;;22.60;22.60;;;;;;;;5087031;29;8788;-74
2023/03/04 00:14:29;;;;;;;;;22.60;22.40;;;;;;;;5086745;29;8863;-74
2023/03/04 00:17:03;;;;;;;;;21.40;21.40;;;;;;;;5069820;29;8909;-76
2023/03/04 00:19:52;;;;;;;;;13.20;13.20;;;;;;;;5085890;29;8802;-79
2023/03/04 00:22:23;;;;;;;;;26.75;25.75;;;;;;;;5054652;29;8807;-79
2023/03/04 00:24:54;;;;;;;;;24.20;23.00;;;;;;;;5086001;29;11179;-76
2023/03/04 00:27:43;;;;;;;;;21.20;21.20;;;;;;;;5086774;29;8772;-76
2023/03/04 00:30:33;;;;;;;;;13.60;13.60;;;;;;;;5070000;29;8772;-78
2023/03/04 00:33:22;;;;;;;;;18.60;16.00;;;;;;;;5069857;29;8811;-78
2023/03/04 00:36:12;;;;;;;;;25.00;23.40;;;;;;;;5069814;29;8826;-78
2023/03/04 00:38:43;;;;;;;;;17.25;16.75;;;;;;;;5069494;29;8817;-78
2023/03/04 00:41:14;;;;;;;;;16.50;16.50;;;;;;;;5069368;29;8901;-76
2023/03/04 00:44:03;;;;;;;;;36.80;34.60;;;;;;;;5069309;29;9532;-77
2023/03/04 00:46:34;;;;;;;;;22.20;21.40;;;;;;;;5085713;29;8807;-77
2023/03/04 00:49:23;;;;;;;;;16.40;16.00;;;;;;;;5069188;29;8794;-77
2023/03/04 00:51:54;;;;;;;;;18.00;18.00;;;;;;;;5050298;29;8798;-77
2023/03/04 00:54:26;;;;;;;;;19.25;19.00;;;;;;;;5066638;29;8790;-75
2023/03/04 00:56:57;;;;;;;;;17.60;16.80;;;;;;;;5049970;29;9689;-75
2023/03/04 00:59:28;;;;;;;;;17.40;11.80;;;;;;;;5068470;29;8829;-77
2023/03/04 01:01:58;;;;;;;;;16.00;16.00;;;;;;;;5069300;29;8802;-77
2023/03/04 01:04:29;;;;;;;;;11.60;11.60;;;;;;;;5038019;29;8830;-75
2023/03/04 01:07:00;;;;;;;;;20.50;19.75;;;;;;;;5053491;29;9548;-76
2023/03/04 01:09:32;;;;;;;;;19.60;19.60;;;;;;;;5085730;29;8802;-74
2023/03/04 01:12:04;;;;;;;;;12.60;12.00;;;;;;;;5068857;29;8829;-74
2023/03/04 01:14:35;;;;;;;;;19.20;14.40;;;;;;;;5068672;29;8824;-74
2023/03/04 01:17:06;;;;;;;;;18.40;17.20;;;;;;;;5053422;29;8782;-74
2023/03/04 01:19:37;;;;;;;;;18.00;16.00;;;;;;;;5068455;29;8815;-77
2023/03/04 01:22:09;;;;;;;;;27.00;25.80;;;;;;;;5084756;29;8803;-76
2023/03/04 01:24:40;;;;;;;;;29.80;29.60;;;;;;;;5068436;29;8878;-74
2023/03/04 01:27:11;;;;;;;;;17.80;17.00;;;;;;;;5052734;29;8795;-74
2023/03/04 01:29:42;;;;;;;;;16.60;16.00;;;;;;;;5082991;29;8818;-76
2023/03/04 01:32:13;;;;;;;;;13.00;13.00;;;;;;;;5085448;29;8811;-74
2023/03/04 01:34:46;;;;;;;;;17.60;16.60;;;;;;;;5068432;29;9546;-71
2023/03/04 01:37:17;;;;;;;;;18.20;16.80;;;;;;;;5084185;29;8802;-74
2023/03/04 01:39:51;;;;;;;;;14.60;14.60;;;;;;;;5069310;29;8825;-73
2023/03/04 01:42:23;;;;;;;;;13.00;13.00;;;;;;;;5068131;29;8887;-75
2023/03/04 01:44:54;;;;;;;;;19.00;18.00;;;;;;;;5068290;29;9496;-74
2023/03/04 01:47:27;;;;;;;;;9.60;9.60;;;;;;;;5085022;29;8867;-76
2023/03/04 01:50:00;;;;;;;;;11.00;11.00;;;;;;;;5067559;29;8937;-76
2023/03/04 01:52:31;;;;;;;;;13.20;10.40;;;;;;;;5084260;29;8802;-76
2023/03/04 01:55:05;;;;;;;;;15.00;14.00;;;;;;;;5067111;29;8833;-74
2023/03/04 01:57:38;;;;;;;;;13.20;13.00;;;;;;;;5052961;29;8862;-74
2023/03/04 02:00:20;;;;;;;;;37.60;34.20;;;;;;;;5068132;29;9609;-75
2023/03/04 02:03:11;;;;;;;;;21.60;20.40;;;;;;;;5083957;29;9034;-76
2023/03/04 02:05:44;;;;;;;;;37.60;36.80;;;;;;;;5067826;29;8798;-75
2023/03/04 02:08:17;;;;;;;;;23.40;23.00;;;;;;;;5068197;29;8795;-76
2023/03/04 02:10:49;;;;;;;;;26.80;26.20;;;;;;;;5084130;29;8792;-76
2023/03/04 02:13:40;;;;;;;;;21.20;20.80;;;;;;;;5057743;29;8804;-75
2023/03/04 02:16:11;;;;;;;;;17.20;16.40;;;;;;;;5052313;29;8936;-75
2023/03/04 02:18:42;;;;;;;;;25.00;22.00;;;;;;;;5084575;29;8788;-75
2023/03/04 02:21:19;;;;;;;;;22.20;22.00;;;;;;;;5052856;29;8796;-76
2023/03/04 02:24:09;;;;;;;;;81.20;62.80;;;;;;;;5082354;29;8851;-77
2023/03/04 02:26:42;;;;;;;;;24.20;21.60;;;;;;;;5084902;29;8792;-77
2023/03/04 02:29:16;;;;;;;;;24.00;23.60;;;;;;;;5067450;29;8786;-76
2023/03/04 02:31:48;;;;;;;;;21.00;19.60;;;;;;;;5084481;29;8794;-76
2023/03/04 02:34:21;;;;;;;;;26.80;26.80;;;;;;;;5067579;29;8813;-76
2023/03/04 02:36:53;;;;;;;;;15.20;13.80;;;;;;;;5052035;29;8940;-76
2023/03/04 02:39:28;;;;;;;;;20.00;18.60;;;;;;;;5067992;29;8794;-76
2023/03/04 02:42:00;;;;;;;;;19.80;19.60;;;;;;;;5051710;29;8849;-75
2023/03/04 02:44:33;;;;;;;;;20.40;20.00;;;;;;;;5083337;29;8875;-75
2023/03/04 02:47:06;;;;;;;;;27.40;26.00;;;;;;;;5067383;29;8811;-76
2023/03/04 02:49:38;;;;;;;;;23.20;20.60;;;;;;;;5054559;29;9515;-76
2023/03/04 02:52:14;;;;;;;;;20.20;20.20;;;;;;;;5067654;29;8794;-77
2023/03/04 02:54:45;;;;;;;;;20.40;20.40;;;;;;;;5082010;29;8954;-76
2023/03/04 02:57:16;;;;;;;;;13.80;13.80;;;;;;;;5063628;29;8794;-76
2023/03/04 02:59:51;;;;;;;;;19.20;18.80;;;;;;;;5079319;29;8830;-77
2023/03/04 03:02:26;;;;;;;;;20.40;19.60;;;;;;;;5049586;29;8787;-81
2023/03/04 03:04:57;;;;;;;;;14.00;14.00;;;;;;;;5057117;29;8811;-79
2023/03/04 03:07:31;;;;;;;;;19.20;17.80;;;;;;;;5041261;29;8871;-76
2023/03/04 03:10:03;;;;;;;;;20.80;20.80;;;;;;;;5055486;29;8828;-78
2023/03/04 03:12:34;;;;;;;;;9.60;9.20;;;;;;;;5086661;29;8812;-77
2023/03/04 03:15:07;;;;;;;;;19.20;19.20;;;;;;;;5071483;29;8799;-78
2023/03/04 03:17:38;;;;;;;;;13.00;13.00;;;;;;;;5055593;29;8911;-78
2023/03/04 03:20:10;;;;;;;;;17.00;16.80;;;;;;;;5069955;29;8814;-78
2023/03/04 03:22:42;;;;;;;;;19.40;19.00;;;;;;;;5055261;29;8846;-78
2023/03/04 03:25:14;;;;;;;;;21.00;21.00;;;;;;;;5070400;29;8854;-78
2023/03/04 03:27:46;;;;;;;;;35.20;34.00;;;;;;;;5069073;29;8819;-79
2023/03/04 03:30:18;;;;;;;;;33.00;31.20;;;;;;;;5070877;29;8880;-78
2023/03/04 03:32:49;;;;;;;;;25.20;25.20;;;;;;;;5070749;29;8806;-79
2023/03/04 03:35:20;;;;;;;;;18.40;17.60;;;;;;;;5070293;29;8807;-77
2023/03/04 03:37:51;;;;;;;;;27.80;25.40;;;;;;;;5070651;29;8816;-76
2023/03/04 03:40:41;;;;;;;;;59.60;50.80;;;;;;;;5057335;29;9602;-76
2023/03/04 03:43:12;;;;;;;;;77.40;60.20;;;;;;;;5086079;29;8816;-76
2023/03/04 03:45:43;;;;;;;;;77.00;60.20;;;;;;;;5085475;29;8838;-76
2023/03/04 03:48:15;;;;;;;;;58.00;47.40;;;;;;;;5054646;29;8815;-76
2023/03/04 03:50:46;;;;;;;;;28.80;28.00;;;;;;;;5084980;29;8811;-76
2023/03/04 03:53:17;;;;;;;;;23.40;23.00;;;;;;;;5070578;29;8810;-77
2023/03/04 03:55:48;;;;;;;;;14.20;14.20;;;;;;;;5069983;29;8925;-81
2023/03/04 03:58:19;;;;;;;;;14.20;13.60;;;;;;;;5069996;29;8790;-81
2023/03/04 04:00:50;;;;;;;;;15.00;15.00;;;;;;;;5054685;29;8810;-78
2023/03/04 04:03:22;;;;;;;;;14.80;14.80;;;;;;;;5085467;29;8850;-80
2023/03/04 04:05:52;;;;;;;;;11.60;11.60;;;;;;;;5069841;29;8812;-78
2023/03/04 04:08:24;;;;;;;;;11.20;11.20;;;;;;;;5069580;29;8788;-79
2023/03/04 04:10:55;;;;;;;;;15.80;14.60;;;;;;;;5085305;29;8800;-78
2023/03/04 04:13:44;;;;;;;;;13.20;13.20;;;;;;;;5069955;29;8833;-77
2023/03/04 04:16:15;;;;;;;;;10.00;9.20;;;;;;;;5069824;29;8803;-75
2023/03/04 04:18:46;;;;;;;;;9.20;9.20;;;;;;;;5067767;29;8820;-76
2023/03/04 04:21:17;;;;;;;;;15.80;15.80;;;;;;;;5070276;29;8783;-77
2023/03/04 04:23:48;;;;;;;;;14.80;14.40;;;;;;;;5053489;29;8911;-77
2023/03/04 04:26:19;;;;;;;;;9.20;9.20;;;;;;;;5068951;29;8838;-77
2023/03/04 04:28:50;;;;;;;;;8.80;8.80;;;;;;;;5053978;29;8845;-76
2023/03/04 04:31:21;;;;;;;;;10.50;10.50;;;;;;;;5068151;29;9532;-76
2023/03/04 04:33:52;;;;;;;;;7.00;7.00;;;;;;;;5069762;29;8796;-75
2023/03/04 04:36:23;;;;;;;;;13.00;13.00;;;;;;;;5069529;29;9639;-75
2023/03/04 04:38:54;;;;;;;;;20.00;18.60;;;;;;;;5069130;29;11828;-79
2023/03/04 04:41:27;;;;;;;;;22.00;22.00;;;;;;;;5052478;29;8930;-79
2023/03/04 04:43:58;;;;;;;;;17.20;17.20;;;;;;;;5069010;29;10444;-73
2023/03/04 04:46:29;;;;;;;;;30.80;28.20;;;;;;;;5084734;29;8820;-72
2023/03/04 04:49:01;;;;;;;;;70.40;58.20;;;;;;;;5083838;29;8822;-73
2023/03/04 04:51:33;;;;;;;;;28.00;28.00;;;;;;;;5068912;29;8893;-73
2023/03/04 04:54:04;;;;;;;;;17.00;16.20;;;;;;;;5085038;29;8820;-72
2023/03/04 04:56:36;;;;;;;;;25.40;25.40;;;;;;;;5050658;29;9734;-71
2023/03/04 04:59:07;;;;;;;;;22.60;21.80;;;;;;;;5051945;29;8899;-72
2023/03/04 05:01:38;;;;;;;;;33.80;31.60;;;;;;;;5051906;29;8800;-76
2023/03/04 05:04:09;;;;;;;;;30.20;30.20;;;;;;;;5066955;29;9570;-72
2023/03/04 05:06:40;;;;;;;;;32.40;31.00;;;;;;;;5066843;29;8814;-75
2023/03/04 05:09:11;;;;;;;;;18.60;18.60;;;;;;;;5067429;29;8813;-74
2023/03/04 05:11:42;;;;;;;;;16.60;16.20;;;;;;;;5066753;29;8842;-75
2023/03/04 05:14:31;;;;;;;;;34.60;31.60;;;;;;;;5066257;29;8969;-75
2023/03/04 05:17:02;;;;;;;;;60.75;48.00;;;;;;;;5048560;29;8921;-77
2023/03/04 05:19:34;;;;;;;;;30.20;30.20;;;;;;;;5082622;29;8934;-76
2023/03/04 05:22:04;;;;;;;;;36.25;35.75;;;;;;;;5066637;29;8982;-75
2023/03/04 05:24:35;;;;;;;;;17.40;17.40;;;;;;;;5083443;29;12364;-78
2023/03/04 05:27:06;;;;;;;;;33.40;32.60;;;;;;;;5065880;29;8827;-76
2023/03/04 05:29:38;;;;;;;;;40.00;38.20;;;;;;;;5061963;29;8944;-75
2023/03/04 05:32:09;;;;;;;;;35.80;34.00;;;;;;;;5047583;29;8778;-77
2023/03/04 05:34:41;;;;;;;;;31.20;26.80;;;;;;;;5082047;29;8855;-75
2023/03/04 05:37:13;;;;;;;;;48.25;40.50;;;;;;;;5081358;29;8826;-81
2023/03/04 05:39:46;;;;;;;;;40.00;34.80;;;;;;;;5067688;29;9751;-81
2023/03/04 05:42:38;;;;;;;;;37.40;36.20;;;;;;;;5083558;29;8830;-81
2023/03/04 05:45:12;;;;;;;;;45.20;42.60;;;;;;;;5066736;29;8804;-82
2023/03/04 05:47:45;;;;;;;;;38.40;36.80;;;;;;;;5052842;29;8824;-81
2023/03/04 05:50:18;;;;;;;;;31.00;29.00;;;;;;;;5063851;29;8857;-81
2023/03/04 05:52:52;;;;;;;;;26.80;26.80;;;;;;;;5032951;29;8801;-82
2023/03/04 05:55:27;;;;;;;;;30.00;27.40;;;;;;;;5034332;29;8786;-82
2023/03/04 05:58:00;;;;;;;;;19.80;18.80;;;;;;;;5078942;29;8850;-80
2023/03/04 06:00:53;;;;;;;;;17.20;17.20;;;;;;;;5067947;29;8828;-81
2023/03/04 06:03:26;;;;;;;;;18.20;16.40;;;;;;;;5083646;29;8819;-81
2023/03/04 06:05:59;;;;;;;;;11.80;11.80;;;;;;;;5069247;29;8811;-81
2023/03/04 06:08:33;;;;;;;;;10.20;10.20;;;;;;;;5037850;29;8828;-80
2023/03/04 06:11:06;;;;;;;;;6.60;6.60;;;;;;;;5037393;29;8801;-81
2023/03/04 06:13:40;;;;;;;;;9.60;9.60;;;;;;;;5052575;29;8825;-81
2023/03/04 06:16:13;;;;;;;;;10.20;10.20;;;;;;;;5053477;29;8819;-81
2023/03/04 06:18:46;;;;;;;;;10.80;10.80;;;;;;;;5037130;29;8796;-80
2023/03/04 06:21:19;;;;;;;;;6.80;6.80;;;;;;;;5053236;29;8891;-82
2023/03/04 06:23:52;;;;;;;;;9.00;9.00;;;;;;;;5036321;29;8839;-81
2023/03/04 06:26:44;;;;;;;;;16.60;16.00;;;;;;;;5067567;29;8783;-81
2023/03/04 06:29:17;;;;;;;;;19.00;17.80;;;;;;;;5052018;29;8794;-81
2023/03/04 06:31:50;;;;;;;;;8.60;8.60;;;;;;;;5067298;29;8806;-81
2023/03/04 06:34:23;;;;;;;;;8.60;8.60;;;;;;;;5067288;29;8830;-81
2023/03/04 06:36:57;;;;;;;;;8.00;6.00;;;;;;;;5051736;29;9544;-81
2023/03/04 06:39:30;;;;;;;;;9.00;9.00;;;;;;;;5051108;29;8788;-81
2023/03/04 06:42:21;;;;;;;;;5.00;5.00;;;;;;;;5056665;29;8862;-74
2023/03/04 06:44:53;;;;;;;;;2.00;2.00;;;;;;;;5069858;29;8845;-81
2023/03/04 06:47:27;;;;;;;;;7.20;7.20;;;;;;;;5039813;29;8870;-81
2023/03/04 06:50:02;;;;;;;;;6.00;6.00;;;;;;;;5039337;29;8804;-81
2023/03/04 06:52:55;;;;;;;;;6.00;6.00;;;;;;;;5057703;29;8796;-81
2023/03/04 06:55:29;;;;;;;;;19.40;18.00;;;;;;;;5070767;29;8843;-83
2023/03/04 06:58:00;;;;;;;;;13.00;12.00;;;;;;;;5055029;29;8921;-73
2023/03/04 07:00:31;;;;;;;;;11.80;11.80;;;;;;;;5085537;29;8826;-73
2023/03/04 07:03:21;;;;;;;;;29.60;27.60;;;;;;;;5069133;29;9550;-73
2023/03/04 07:06:11;;;;;;;;;15.40;15.20;;;;;;;;5070269;29;9689;-73
2023/03/04 07:08:43;;;;;;;;;10.80;10.60;;;;;;;;5085420;29;8822;-73
2023/03/04 07:11:15;;;;;;;;;15.40;15.40;;;;;;;;5069503;29;8928;-74
2023/03/04 07:13:46;;;;;;;;;9.80;9.80;;;;;;;;5086175;29;8882;-73
2023/03/04 07:16:19;;;;;;;;;17.80;17.80;;;;;;;;5084880;29;8927;-73
2023/03/04 07:18:50;;;;;;;;;8.80;8.80;;;;;;;;5052963;29;9641;-73
2023/03/04 07:21:21;;;;;;;;;10.00;10.00;;;;;;;;5069135;29;8814;-73
2023/03/04 07:23:52;;;;;;;;;5.40;5.40;;;;;;;;5085179;29;8857;-73
2023/03/04 07:26:23;;;;;;;;;8.60;8.60;;;;;;;;4987505;29;1530164;-73
2023/03/04 07:28:57;;;;;;;;;17.20;15.80;;;;;;;;5070696;29;8870;-73
2023/03/04 07:31:30;;;;;;;;;34.00;32.60;;;;;;;;5039642;29;8886;-73
2023/03/04 07:34:19;;;;;;;;;24.20;24.00;;;;;;;;5086622;29;8925;-74
2023/03/04 07:37:09;;;;;;;;;25.00;24.80;;;;;;;;5070263;29;8806;-73
2023/03/04 07:39:58;;;;;;;;;26.20;25.20;;;;;;;;5087553;29;8784;-72
2023/03/04 07:42:29;;;;;;;;;19.50;19.50;;;;;;;;5086778;29;8807;-72
2023/03/04 07:45:08;;;;;;;;;10.40;10.40;;;;;;;;5055069;29;11565;-73
2023/03/04 07:47:40;;;;;;;;;14.00;14.00;;;;;;;;5087439;29;8780;-73
2023/03/04 07:50:11;;;;;;;;;9.00;9.00;;;;;;;;5085023;29;8826;-73
2023/03/04 07:52:44;;;;;;;;;8.40;8.40;;;;;;;;5069620;29;8846;-74
2023/03/04 07:55:15;;;;;;;;;3.20;3.20;;;;;;;;5069450;29;8794;-73
2023/03/04 07:58:04;;;;;;;;;4.80;4.80;;;;;;;;5085202;29;8792;-73
2023/03/04 08:00:36;;;;;;;;;11.20;11.20;;;;;;;;5086834;29;8798;-72
2023/03/04 08:03:07;;;;;;;;;22.20;20.60;;;;;;;;5085328;29;8834;-73
2023/03/04 08:05:56;;;;;;;;;12.60;12.20;;;;;;;;5086509;29;8843;-73
2023/03/04 08:08:27;;;;;;;;;7.00;7.00;;;;;;;;5070097;29;8780;-73
2023/03/04 08:10:58;;;;;;;;;14.60;13.60;;;;;;;;5070445;29;8776;-73
2023/03/04 08:13:29;;;;;;;;;13.40;13.20;;;;;;;;5039238;29;9480;-71
2023/03/04 08:16:00;;;;;;;;;5.00;5.00;;;;;;;;5070068;29;8845;-71
2023/03/04 08:18:31;;;;;;;;;4.80;4.80;;;;;;;;5085784;29;8806;-71
2023/03/04 08:21:06;;;;;;;;;5.00;5.00;;;;;;;;5070250;29;8775;-74
2023/03/04 08:23:38;;;;;;;;;5.60;5.60;;;;;;;;5070005;29;8905;-71
2023/03/04 08:26:14;;;;;;;;;5.00;5.00;;;;;;;;5085538;29;8830;-71
2023/03/04 08:28:46;;;;;;;;;5.00;5.00;;;;;;;;5069724;29;8800;-72
2023/03/04 08:31:17;;;;;;;;;13.60;13.60;;;;;;;;5085533;29;8847;-72
2023/03/04 08:33:48;;;;;;;;;9.80;9.80;;;;;;;;5086784;29;8802;-72
2023/03/04 08:36:19;;;;;;;;;18.00;18.00;;;;;;;;5069926;29;8832;-71
2023/03/04 08:38:50;;;;;;;;;37.80;37.00;;;;;;;;5069672;29;8811;-72
2023/03/04 08:41:21;;;;;;;;;64.60;54.20;;;;;;;;5086418;29;8783;-72
2023/03/04 08:43:52;;;;;;;;;41.00;40.00;;;;;;;;5086530;29;8869;-72
2023/03/04 08:46:23;;;;;;;;;19.75;19.00;;;;;;;;5069401;29;11524;-72
2023/03/04 08:48:54;;;;;;;;;20.50;19.50;;;;;;;;5043104;29;8800;-72
2023/03/04 08:51:25;;;;;;;;;44.25;40.50;;;;;;;;5068824;29;11621;-72
2023/03/04 08:53:55;;;;;;;;;39.25;38.25;;;;;;;;5053784;29;8818;-73
2023/03/04 08:56:27;;;;;;;;;49.75;43.25;;;;;;;;5069356;29;8806;-72
2023/03/04 08:58:58;;;;;;;;;50.60;43.40;;;;;;;;5085821;29;8810;-72
2023/03/04 09:01:29;;;;;;;;;23.00;22.75;;;;;;;;5085425;29;8791;-72
2023/03/04 09:04:00;;;;;;;;;20.00;19.40;;;;;;;;5053481;29;9572;-71
2023/03/04 09:06:31;;;;;;;;;42.20;39.60;;;;;;;;5069167;29;8806;-72
2023/03/04 09:09:02;;;;;;;;;83.75;66.25;;;;;;;;5069095;29;8787;-72
2023/03/04 09:11:51;;;;;;;;;76.00;61.80;;;;;;;;5068737;29;8791;-72
2023/03/04 09:14:22;;;;;;;;;60.40;51.20;;;;;;;;5068973;29;8814;-71
2023/03/04 09:16:53;;;;;;;;;32.50;32.00;;;;;;;;5083787;29;8773;-69
2023/03/04 09:24:34;;;;;;;;;22.80;22.80;;;;;;;;5260811;27;13504;-74
2023/03/04 09:27:05;;;;;;;;;19.60;19.60;;;;;;;;5246373;28;8783;-75
2023/03/04 09:29:36;;;;;;;;;21.40;20.60;;;;;;;;5263077;28;8893;-75
2023/03/04 09:32:07;;;;;;;;;19.75;19.75;;;;;;;;5270251;28;8776;-75
2023/03/04 09:34:38;;;;;;;;;26.50;26.50;;;;;;;;5267051;28;11653;-77
2023/03/04 09:37:08;;;;;;;;;58.40;46.40;;;;;;;;5279598;28;8872;-76
2023/03/04 09:39:39;;;;;;;;;44.00;41.75;;;;;;;;5229369;28;8767;-76
2023/03/04 09:42:31;;;;;;;;;39.40;37.80;;;;;;;;5262882;28;11611;-74
2023/03/04 09:45:04;;;;;;;;;45.00;39.80;;;;;;;;5263027;28;8783;-75
2023/03/04 09:47:36;;;;;;;;;38.80;36.00;;;;;;;;5263963;28;8787;-76
2023/03/04 09:50:08;;;;;;;;;61.60;51.80;;;;;;;;5262746;28;8767;-75
2023/03/04 09:52:57;;;;;;;;;61.20;51.00;;;;;;;;5257161;28;9503;-74
2023/03/04 09:55:39;;;;;;;;;27.20;27.00;;;;;;;;5284852;28;8793;-75
2023/03/04 09:58:13;;;;;;;;;22.60;22.60;;;;;;;;5268869;28;8787;-73
2023/03/04 10:01:08;;;;;;;;;30.00;29.00;;;;;;;;5263059;28;8799;-75
2023/03/04 10:03:47;;;;;;;;;97.40;83.20;;;;;;;;5263544;28;8807;-74
2023/03/04 10:06:19;;;;;;;;;94.60;79.60;;;;;;;;5263564;28;8784;-75
2023/03/04 10:08:50;;;;;;;;;62.80;51.00;;;;;;;;5245495;28;8860;-75
2023/03/04 10:11:36;;;;;;;;;37.75;36.50;;;;;;;;5246154;28;9502;-75
2023/03/04 10:14:52;;;;;;;;;39.80;38.20;;;;;;;;5265055;28;11516;-75
2023/03/04 10:17:37;;;;;;;;;68.20;53.40;;;;;;;;5235127;28;8798;-74
2023/03/04 10:20:43;;;;;;;;;69.60;54.80;;;;;;;;5241269;28;8769;-75
2023/03/04 10:23:17;;;;;;;;;61.20;50.00;;;;;;;;5224106;28;8914;-74
2023/03/04 10:25:52;;;;;;;;;42.40;40.20;;;;;;;;5226368;28;8797;-75
2023/03/04 10:28:42;;;;;;;;;73.20;59.80;;;;;;;;5226953;28;8817;-76
2023/03/04 10:31:16;;;;;;;;;90.00;71.00;;;;;;;;5224802;28;8770;-76
2023/03/04 10:33:47;;;;;;;;;98.40;86.40;;;;;;;;5239110;28;8786;-76
2023/03/04 10:36:28;;;;;;;;;57.60;47.60;;;;;;;;5226771;28;8936;-76
2023/03/04 10:39:00;;;;;;;;;14.80;14.80;;;;;;;;5190361;28;8803;-76
2023/03/04 10:41:57;;;;;;;;;14.60;14.60;;;;;;;;5206911;28;8800;-76
2023/03/04 10:44:29;;;;;;;;;21.20;17.40;;;;;;;;5189998;28;9056;-76
2023/03/04 10:47:00;;;;;;;;;88.60;72.40;;;;;;;;5206332;28;8849;-76
2023/03/04 10:49:31;;;;;;;;;89.00;69.80;;;;;;;;5173371;28;8813;-76
2023/03/04 10:52:14;;;;;;;;;31.80;31.60;;;;;;;;5220293;28;8887;-76
2023/03/04 10:54:45;;;;;;;;;42.40;40.00;;;;;;;;5247614;28;8801;-75
2023/03/04 10:57:18;;;;;;;;;42.25;40.25;;;;;;;;5238661;28;9543;-74
2023/03/04 10:59:56;;;;;;;;;37.60;36.20;;;;;;;;5226729;28;11529;-75
2023/03/04 11:02:27;;;;;;;;;34.40;34.40;;;;;;;;5210257;28;8801;-75
2023/03/04 11:05:18;;;;;;;;;32.20;31.80;;;;;;;;5226662;28;8861;-75
2023/03/04 11:07:53;;;;;;;;;27.20;27.00;;;;;;;;5210192;28;8924;-74
2023/03/04 11:10:29;;;;;;;;;41.40;37.80;;;;;;;;5193766;28;8793;-75
2023/03/04 11:13:01;;;;;;;;;34.60;33.80;;;;;;;;5243119;28;8791;-74
2023/03/04 11:15:47;;;;;;;;;21.80;21.80;;;;;;;;5230255;28;8803;-74
2023/03/04 11:18:30;;;;;;;;;19.00;19.00;;;;;;;;5195725;28;8785;-74
2023/03/04 11:21:01;;;;;;;;;15.40;15.40;;;;;;;;5209732;28;8773;-74
2023/03/04 11:23:42;;;;;;;;;55.80;47.80;;;;;;;;5209229;28;8856;-74
2023/03/04 11:26:39;;;;;;;;;77.00;58.80;;;;;;;;5202468;28;8795;-74
2023/03/04 11:29:29;;;;;;;;;185.00;137.00;;;;;;;;5229154;28;9505;-75
2023/03/04 11:32:00;;;;;;;;;78.20;58.80;;;;;;;;5202625;28;9528;-74
2023/03/04 11:34:53;;;;;;;;;56.00;47.20;;;;;;;;5209154;28;8912;-75
2023/03/04 11:37:24;;;;;;;;;77.40;61.00;;;;;;;;5206899;28;8844;-76
2023/03/04 11:40:03;;;;;;;;;104.33;88.33;;;;;;;;5186788;28;8804;-77
2023/03/04 11:42:42;;;;;;;;;99.80;82.60;;;;;;;;5171676;28;8824;-76
2023/03/04 11:45:14;;;;;;;;;88.00;68.20;;;;;;;;5210152;28;8817;-75
2023/03/04 11:48:09;;;;;;;;;63.40;53.80;;;;;;;;5208046;28;9637;-76
2023/03/04 11:50:46;;;;;;;;;58.40;48.80;;;;;;;;5208710;28;8790;-76
2023/03/04 11:53:23;;;;;;;;;56.60;47.60;;;;;;;;5209299;28;8788;-76
2023/03/04 11:56:21;;;;;;;;;60.20;50.60;;;;;;;;5242402;28;8802;-76
2023/03/04 11:59:22;;;;;;;;;30.80;30.80;;;;;;;;5226189;28;8821;-74
2023/03/04 12:02:11;;;;;;;;;30.80;30.20;;;;;;;;5221467;28;8810;-74
2023/03/04 12:04:45;;;;;;;;;28.80;28.80;;;;;;;;5208810;28;8785;-75
2023/03/04 12:07:30;;;;;;;;;38.00;37.20;;;;;;;;5192415;28;8790;-77
2023/03/04 12:10:13;;;;;;;;;39.40;37.60;;;;;;;;5193105;28;8868;-77
2023/03/04 12:12:44;;;;;;;;;36.20;36.00;;;;;;;;5191726;28;9528;-75
2023/03/04 12:15:14;;;;;;;;;45.00;40.25;;;;;;;;5191892;28;8916;-75
2023/03/04 12:18:04;;;;;;;;;47.50;42.25;;;;;;;;5192084;28;9578;-79
2023/03/04 12:20:43;;;;;;;;;45.40;41.60;;;;;;;;5192231;28;8832;-79
2023/03/04 12:23:23;;;;;;;;;38.40;36.80;;;;;;;;5224468;28;8845;-77
2023/03/04 12:25:55;;;;;;;;;31.00;30.80;;;;;;;;5226110;28;8792;-76
2023/03/04 12:28:34;;;;;;;;;22.40;22.40;;;;;;;;5245114;28;8780;-76
2023/03/04 12:31:14;;;;;;;;;16.00;15.20;;;;;;;;5245677;28;8783;-77
2023/03/04 12:33:51;;;;;;;;;22.20;22.20;;;;;;;;5238010;28;8841;-78
2023/03/04 12:36:51;;;;;;;;;24.20;24.20;;;;;;;;5222949;28;8834;-77
2023/03/04 12:39:36;;;;;;;;;27.80;26.60;;;;;;;;5244620;28;8783;-75
2023/03/04 12:42:24;;;;;;;;;21.80;21.80;;;;;;;;5228769;28;8779;-73
2023/03/04 12:45:03;;;;;;;;;33.80;33.00;;;;;;;;5245495;28;8817;-75
2023/03/04 12:47:44;;;;;;;;;46.20;42.00;;;;;;;;5245704;28;8910;-74
2023/03/04 12:50:33;;;;;;;;;61.60;51.40;;;;;;;;5216738;28;8965;-75
2023/03/04 12:53:04;;;;;;;;;44.80;41.20;;;;;;;;5219413;28;8822;-77
2023/03/04 12:55:38;;;;;;;;;46.00;41.60;;;;;;;;5210872;28;8787;-76
2023/03/04 12:58:35;;;;;;;;;49.20;42.60;;;;;;;;5245144;28;8810;-76
2023/03/04 13:01:44;;;;;;;;;43.60;41.20;;;;;;;;5227029;28;8775;-76
2023/03/04 13:04:15;;;;;;;;;40.20;38.40;;;;;;;;5243809;28;8798;-75
2023/03/04 13:07:05;;;;;;;;;48.75;43.50;;;;;;;;5209468;28;8827;-76
2023/03/04 13:09:43;;;;;;;;;43.20;40.80;;;;;;;;5201642;28;11519;-75
2023/03/04 13:12:21;;;;;;;;;35.40;34.80;;;;;;;;5207200;28;8789;-76
2023/03/04 13:15:07;;;;;;;;;38.60;38.20;;;;;;;;5215534;28;8807;-81
2023/03/04 13:17:40;;;;;;;;;26.60;26.60;;;;;;;;5228217;28;9494;-81
2023/03/04 13:20:30;;;;;;;;;25.60;25.20;;;;;;;;5225666;28;8815;-79
2023/03/04 13:23:05;;;;;;;;;35.25;29.00;;;;;;;;5205460;28;8853;-77
2023/03/04 13:25:41;;;;;;;;;43.20;41.40;;;;;;;;5207776;28;10149;-72
2023/03/04 13:28:18;;;;;;;;;59.20;50.00;;;;;;;;5224182;28;8960;-83
2023/03/04 13:30:55;;;;;;;;;43.60;40.20;;;;;;;;5223204;28;8805;-80
2023/03/04 13:33:26;;;;;;;;;57.20;47.60;;;;;;;;5214231;28;9537;-79
2023/03/04 13:36:25;;;;;;;;;73.25;60.75;;;;;;;;5228000;28;8798;-72
2023/03/04 13:39:14;;;;;;;;;75.40;62.20;;;;;;;;5229997;28;10935;-72
2023/03/04 13:41:45;;;;;;;;;82.75;67.50;;;;;;;;5244486;28;8802;-71
2023/03/04 13:44:55;;;;;;;;;85.00;68.20;;;;;;;;5213143;28;8813;-72
2023/03/04 13:47:30;;;;;;;;;84.60;65.80;;;;;;;;5205991;28;8760;-72
2023/03/04 13:50:22;;;;;;;;;79.60;64.00;;;;;;;;5206344;28;9479;-72
2023/03/04 13:52:54;;;;;;;;;71.00;59.20;;;;;;;;5226429;28;8774;-72
2023/03/04 13:55:33;;;;;;;;;128.50;102.00;;;;;;;;5244375;28;8787;-71
2023/03/04 13:58:22;;;;;;;;;73.60;59.60;;;;;;;;5227824;28;8813;-73
2023/03/04 14:00:54;;;;;;;;;74.00;60.80;;;;;;;;5190887;28;8874;-75
2023/03/04 14:03:27;;;;;;;;;82.80;66.60;;;;;;;;5223892;28;8817;-75
2023/03/04 14:06:14;;;;;;;;;83.20;63.40;;;;;;;;5223626;28;8821;-72
2023/03/04 14:09:11;;;;;;;;;72.60;59.80;;;;;;;;5234564;28;8790;-73
2023/03/04 14:11:42;;;;;;;;;79.60;63.40;;;;;;;;5222032;28;8844;-72
2023/03/04 14:14:15;;;;;;;;;86.80;68.60;;;;;;;;5222186;28;8844;-75
2023/03/04 14:16:52;;;;;;;;;58.60;47.00;;;;;;;;5192439;28;8842;-73
2023/03/04 14:19:37;;;;;;;;;66.00;54.40;;;;;;;;5208609;28;8809;-73
2023/03/04 14:22:22;;;;;;;;;53.40;46.40;;;;;;;;5227867;28;8899;-73
2023/03/04 14:24:57;;;;;;;;;48.80;44.40;;;;;;;;5251023;28;8983;-73
2023/03/04 14:27:31;;;;;;;;;56.20;48.40;;;;;;;;5223513;28;8982;-70
2023/03/04 14:30:04;;;;;;;;;57.40;49.40;;;;;;;;5214715;28;8846;-70
2023/03/04 14:32:35;;;;;;;;;60.40;51.00;;;;;;;;5214639;28;8797;-73
2023/03/04 14:35:17;;;;;;;;;63.25;54.00;;;;;;;;5197869;28;8785;-73
2023/03/04 14:37:58;;;;;;;;;75.20;61.60;;;;;;;;5230514;28;11092;-72
2023/03/04 14:40:33;;;;;;;;;56.20;47.40;;;;;;;;5225740;28;8791;-72
2023/03/04 14:43:23;;;;;;;;;55.20;48.40;;;;;;;;5241329;28;9577;-74
2023/03/04 14:45:56;;;;;;;;;63.00;52.40;;;;;;;;5211415;28;8795;-71
2023/03/04 14:48:50;;;;;;;;;72.20;58.20;;;;;;;;5247722;28;8769;-74
2023/03/04 14:51:36;;;;;;;;;52.40;46.80;;;;;;;;5214424;28;8780;-73
2023/03/04 14:54:24;;;;;;;;;37.40;32.40;;;;;;;;5230695;28;8780;-73
2023/03/04 14:56:56;;;;;;;;;31.80;31.60;;;;;;;;5231188;28;8924;-74
2023/03/04 14:59:32;;;;;;;;;22.00;21.60;;;;;;;;5248734;28;8803;-70
2023/03/04 15:02:16;;;;;;;;;17.00;17.00;;;;;;;;5230690;28;8819;-71
2023/03/04 15:04:48;;;;;;;;;12.80;12.40;;;;;;;;5197359;28;8780;-71
2023/03/04 15:07:27;;;;;;;;;62.20;53.80;;;;;;;;5197447;28;8781;-71
2023/03/04 15:09:58;;;;;;;;;77.60;63.00;;;;;;;;5197648;28;8789;-71
2023/03/04 15:12:31;;;;;;;;;21.20;19.20;;;;;;;;5229497;28;8804;-71
2023/03/04 15:15:04;;;;;;;;;14.80;7.60;;;;;;;;5241420;28;8867;-72
2023/03/04 15:17:36;;;;;;;;;40.40;38.20;;;;;;;;5249307;28;8790;-71
2023/03/04 15:20:28;;;;;;;;;15.20;14.20;;;;;;;;5251240;28;8796;-72
2023/03/04 15:23:00;;;;;;;;;18.20;18.20;;;;;;;;5223914;28;8846;-71
2023/03/04 15:25:51;;;;;;;;;21.60;20.80;;;;;;;;5225230;28;8766;-70
2023/03/04 15:28:22;;;;;;;;;25.60;24.40;;;;;;;;5225696;28;8793;-70
2023/03/04 15:30:53;;;;;;;;;28.80;27.60;;;;;;;;5207452;28;8798;-72